UAL6517 KSAN-KOKC
Flight info
| Callsign | UAL6517 |
|---|---|
| Flight time | N/A |
| Altitude | 35000 |
| Route | ZZOOO4 MTBAL CNERY BLH ANGRY KRRBY BOBYY PNH ROLLS CAMET3 |
| Aircraft | B77W/H-SDE1E2E3FGHIJ2J3J4J5M1RWXY/LB1D1 |
Departure
| Time | N/A |
|---|---|
| Airport | San Diego International Airport (KSAN) |
Arrival
| Time | 2026-04-24 19:59 |
|---|---|
| Airport | OKC Will Rogers World Airport (KOKC) |
| Time | Latitude | Longitude | Altitude | Speed | Heading |
|---|---|---|---|---|---|
| 2026-04-24 18:54 | 34.27576 | -107.04958 | 34902 ft | 594 kts | 83° |
| 2026-04-24 18:55 | 34.28778 | -106.90045 | 34902 ft | 593 kts | 84° |
| 2026-04-24 18:56 | 34.29568 | -106.80115 | 34856 ft | 593 kts | 84° |
| 2026-04-24 18:56 | 34.30350 | -106.70176 | 34861 ft | 593 kts | 84° |
| 2026-04-24 18:57 | 34.31124 | -106.60239 | 34881 ft | 593 kts | 84° |
| 2026-04-24 18:57 | 34.31890 | -106.50305 | 34865 ft | 592 kts | 84° |
| 2026-04-24 18:58 | 34.32642 | -106.40452 | 34884 ft | 591 kts | 84° |
| 2026-04-24 18:58 | 34.33390 | -106.30543 | 34894 ft | 592 kts | 84° |
| 2026-04-24 18:59 | 34.34130 | -106.20624 | 34892 ft | 592 kts | 84° |
| 2026-04-24 18:59 | 34.34864 | -106.10694 | 34895 ft | 593 kts | 84° |
| 2026-04-24 19:00 | 34.35590 | -106.00741 | 34892 ft | 593 kts | 84° |
| 2026-04-24 19:00 | 34.36309 | -105.90778 | 34899 ft | 595 kts | 84° |
| 2026-04-24 19:01 | 34.37277 | -105.80851 | 34893 ft | 594 kts | 77° |
| 2026-04-24 19:01 | 34.39335 | -105.71211 | 34886 ft | 591 kts | 71° |
| 2026-04-24 19:02 | 34.41230 | -105.63254 | 34889 ft | 591 kts | 71° |
| 2026-04-24 19:02 | 34.43845 | -105.52028 | 34863 ft | 592 kts | 71° |
| 2026-04-24 19:03 | 34.46020 | -105.42409 | 34845 ft | 592 kts | 72° |
| 2026-04-24 19:03 | 34.48161 | -105.32839 | 34854 ft | 591 kts | 72° |
| 2026-04-24 19:04 | 34.50312 | -105.23218 | 34844 ft | 591 kts | 72° |
| 2026-04-24 19:04 | 34.52458 | -105.13596 | 34825 ft | 591 kts | 72° |
| 2026-04-24 19:05 | 34.54597 | -105.03973 | 34802 ft | 591 kts | 72° |
| 2026-04-24 19:05 | 34.56729 | -104.94336 | 34810 ft | 590 kts | 72° |
| 2026-04-24 19:06 | 34.58837 | -104.84773 | 34821 ft | 590 kts | 72° |
| 2026-04-24 19:06 | 34.60949 | -104.75150 | 34807 ft | 589 kts | 72° |
| 2026-04-24 19:07 | 34.63051 | -104.65533 | 34812 ft | 588 kts | 72° |
| 2026-04-24 19:07 | 34.64788 | -104.57555 | 34808 ft | 588 kts | 72° |
| 2026-04-24 19:08 | 34.67219 | -104.46346 | 34785 ft | 587 kts | 72° |
| 2026-04-24 19:08 | 34.69293 | -104.36742 | 34768 ft | 587 kts | 72° |
| 2026-04-24 19:09 | 34.71360 | -104.27131 | 34731 ft | 588 kts | 72° |
| 2026-04-24 19:09 | 34.73408 | -104.17567 | 34738 ft | 588 kts | 72° |
| 2026-04-24 19:10 | 34.75460 | -104.07944 | 34732 ft | 588 kts | 72° |
| 2026-04-24 19:10 | 34.77504 | -103.98317 | 34738 ft | 587 kts | 72° |
| 2026-04-24 19:11 | 34.79538 | -103.88700 | 34742 ft | 587 kts | 72° |
| 2026-04-24 19:11 | 34.81562 | -103.79087 | 34753 ft | 586 kts | 72° |
| 2026-04-24 19:12 | 34.83575 | -103.69486 | 34752 ft | 585 kts | 73° |
| 2026-04-24 19:12 | 34.85578 | -103.59884 | 34769 ft | 584 kts | 73° |
| 2026-04-24 19:13 | 34.87238 | -103.51909 | 34770 ft | 584 kts | 73° |
| 2026-04-24 19:13 | 34.89563 | -103.40691 | 34801 ft | 584 kts | 73° |
| 2026-04-24 19:14 | 34.91538 | -103.31104 | 34822 ft | 584 kts | 73° |
| 2026-04-24 19:14 | 34.93495 | -103.21569 | 34821 ft | 584 kts | 73° |
| 2026-04-24 19:15 | 34.95457 | -103.11971 | 34838 ft | 583 kts | 73° |
| 2026-04-24 19:15 | 34.97413 | -103.02356 | 34836 ft | 584 kts | 73° |
| 2026-04-24 19:16 | 35.00333 | -102.87927 | 34842 ft | 584 kts | 73° |
| 2026-04-24 19:16 | 35.02271 | -102.78297 | 34837 ft | 585 kts | 73° |
| 2026-04-24 19:17 | 35.04202 | -102.68660 | 34841 ft | 584 kts | 73° |
| 2026-04-24 19:17 | 35.06126 | -102.59017 | 34855 ft | 584 kts | 74° |
| 2026-04-24 19:18 | 35.08039 | -102.49382 | 34876 ft | 584 kts | 74° |
| 2026-04-24 19:18 | 35.09945 | -102.39745 | 34886 ft | 584 kts | 74° |
| 2026-04-24 19:19 | 35.11846 | -102.30090 | 34865 ft | 583 kts | 74° |
| 2026-04-24 19:19 | 35.13734 | -102.20456 | 34869 ft | 583 kts | 74° |
| 2026-04-24 19:20 | 35.15599 | -102.10895 | 34817 ft | 581 kts | 74° |
| 2026-04-24 19:20 | 35.17465 | -102.01282 | 34862 ft | 580 kts | 75° |
| 2026-04-24 19:21 | 35.19318 | -101.91698 | 34889 ft | 579 kts | 75° |
| 2026-04-24 19:21 | 35.21162 | -101.82114 | 34924 ft | 578 kts | 75° |
| 2026-04-24 19:22 | 35.22998 | -101.72538 | 34924 ft | 578 kts | 75° |
| 2026-04-24 19:22 | 35.24935 | -101.62995 | 34930 ft | 577 kts | 72° |
| 2026-04-24 19:23 | 35.27144 | -101.53550 | 34902 ft | 577 kts | 71° |
| 2026-04-24 19:23 | 35.29373 | -101.44120 | 34866 ft | 576 kts | 72° |
| 2026-04-24 19:24 | 35.31527 | -101.34732 | 34828 ft | 577 kts | 72° |
| 2026-04-24 19:24 | 35.33659 | -101.25261 | 34811 ft | 576 kts | 72° |
| 2026-04-24 19:25 | 35.35776 | -101.15802 | 34837 ft | 576 kts | 72° |
| 2026-04-24 19:25 | 35.37893 | -101.06333 | 34852 ft | 575 kts | 72° |
| 2026-04-24 19:26 | 35.40004 | -100.96866 | 34866 ft | 575 kts | 72° |
| 2026-04-24 19:26 | 35.42107 | -100.87403 | 34863 ft | 575 kts | 73° |
| 2026-04-24 19:27 | 35.44201 | -100.77937 | 34849 ft | 575 kts | 72° |
| 2026-04-24 19:27 | 35.46286 | -100.68468 | 34832 ft | 576 kts | 73° |
| 2026-04-24 19:28 | 35.48368 | -100.58978 | 34809 ft | 576 kts | 73° |
| 2026-04-24 19:28 | 35.50426 | -100.49556 | 34800 ft | 575 kts | 73° |
| 2026-04-24 19:29 | 35.53517 | -100.35334 | 34799 ft | 574 kts | 73° |
| 2026-04-24 19:30 | 35.55563 | -100.25870 | 34797 ft | 573 kts | 73° |
| 2026-04-24 19:30 | 35.57603 | -100.16399 | 34796 ft | 573 kts | 73° |
| 2026-04-24 19:31 | 35.59632 | -100.06940 | 34799 ft | 572 kts | 73° |
| 2026-04-24 19:31 | 35.61651 | -99.97486 | 34797 ft | 572 kts | 73° |
| 2026-04-24 19:32 | 35.63304 | -99.89708 | 34777 ft | 552 kts | 73° |
| 2026-04-24 19:32 | 35.64255 | -99.85212 | 34779 ft | 536 kts | 73° |
| 2026-04-24 19:32 | 35.65182 | -99.80827 | 34628 ft | 524 kts | 73° |
| 2026-04-24 19:32 | 35.66385 | -99.75138 | 34156 ft | 515 kts | 74° |
| 2026-04-24 19:33 | 35.67284 | -99.70884 | 33616 ft | 513 kts | 74° |
| 2026-04-24 19:33 | 35.67887 | -99.68022 | 33211 ft | 511 kts | 74° |
| 2026-04-24 19:33 | 35.68764 | -99.63852 | 32691 ft | 508 kts | 74° |
| 2026-04-24 19:33 | 35.69642 | -99.59669 | 32238 ft | 503 kts | 74° |
| 2026-04-24 19:34 | 35.70521 | -99.55474 | 31808 ft | 497 kts | 74° |
| 2026-04-24 19:34 | 35.71378 | -99.51374 | 31370 ft | 493 kts | 74° |
| 2026-04-24 19:34 | 35.72162 | -99.47346 | 30907 ft | 489 kts | 80° |
| 2026-04-24 19:34 | 35.72310 | -99.43204 | 30378 ft | 482 kts | 95° |
| 2026-04-24 19:35 | 35.72035 | -99.39116 | 29887 ft | 479 kts | 97° |
| 2026-04-24 19:35 | 35.71722 | -99.35035 | 29348 ft | 476 kts | 97° |
| 2026-04-24 19:35 | 35.71419 | -99.30995 | 28859 ft | 472 kts | 96° |
| 2026-04-24 19:35 | 35.71139 | -99.26988 | 28387 ft | 469 kts | 96° |
| 2026-04-24 19:36 | 35.70881 | -99.23002 | 27920 ft | 465 kts | 96° |
| 2026-04-24 19:36 | 35.70639 | -99.19047 | 27441 ft | 462 kts | 96° |
| 2026-04-24 19:36 | 35.70404 | -99.15113 | 26967 ft | 459 kts | 96° |
| 2026-04-24 19:36 | 35.70174 | -99.11205 | 26526 ft | 456 kts | 96° |
| 2026-04-24 19:37 | 35.69943 | -99.07320 | 26093 ft | 453 kts | 96° |
| 2026-04-24 19:37 | 35.69713 | -99.03465 | 25684 ft | 450 kts | 96° |
| 2026-04-24 19:37 | 35.69483 | -98.99645 | 25265 ft | 447 kts | 96° |
| 2026-04-24 19:37 | 35.69251 | -98.95835 | 24846 ft | 445 kts | 96° |
| 2026-04-24 19:38 | 35.69019 | -98.92051 | 24439 ft | 442 kts | 96° |
| 2026-04-24 19:38 | 35.68788 | -98.88294 | 24035 ft | 440 kts | 96° |
| 2026-04-24 19:38 | 35.68555 | -98.84542 | 23643 ft | 438 kts | 96° |
| 2026-04-24 19:38 | 35.68324 | -98.80819 | 23226 ft | 435 kts | 96° |
| 2026-04-24 19:39 | 35.68095 | -98.77169 | 22820 ft | 432 kts | 96° |
| 2026-04-24 19:39 | 35.67865 | -98.73501 | 22425 ft | 428 kts | 96° |
| 2026-04-24 19:39 | 35.67635 | -98.69861 | 22018 ft | 425 kts | 96° |
| 2026-04-24 19:39 | 35.67407 | -98.66252 | 21617 ft | 421 kts | 96° |
| 2026-04-24 19:40 | 35.67178 | -98.62667 | 21215 ft | 419 kts | 96° |
| 2026-04-24 19:40 | 35.66950 | -98.59106 | 20812 ft | 416 kts | 96° |
| 2026-04-24 19:40 | 35.66723 | -98.55576 | 20433 ft | 413 kts | 96° |
| 2026-04-24 19:40 | 35.66496 | -98.52073 | 20054 ft | 410 kts | 96° |
| 2026-04-24 19:41 | 35.66270 | -98.48590 | 19688 ft | 407 kts | 96° |
| 2026-04-24 19:41 | 35.66048 | -98.45170 | 19326 ft | 404 kts | 96° |
| 2026-04-24 19:41 | 35.65823 | -98.41726 | 18957 ft | 402 kts | 96° |
| 2026-04-24 19:41 | 35.65579 | -98.38320 | 18605 ft | 397 kts | 99° |
| 2026-04-24 19:42 | 35.65059 | -98.34995 | 18226 ft | 394 kts | 107° |
| 2026-04-24 19:42 | 35.64361 | -98.31751 | 17779 ft | 392 kts | 109° |
| 2026-04-24 19:42 | 35.63640 | -98.28529 | 17443 ft | 389 kts | 108° |
| 2026-04-24 19:42 | 35.62962 | -98.25326 | 17168 ft | 384 kts | 107° |
| 2026-04-24 19:43 | 35.62332 | -98.22186 | 17043 ft | 373 kts | 107° |
| 2026-04-24 19:43 | 35.61727 | -98.19119 | 16954 ft | 363 kts | 106° |
| 2026-04-24 19:43 | 35.61168 | -98.16170 | 16828 ft | 355 kts | 105° |
| 2026-04-24 19:43 | 35.60630 | -98.13238 | 16601 ft | 350 kts | 105° |
| 2026-04-24 19:44 | 35.60098 | -98.10325 | 16303 ft | 347 kts | 105° |
| 2026-04-24 19:44 | 35.59567 | -98.07438 | 15994 ft | 344 kts | 105° |
| 2026-04-24 19:44 | 35.59038 | -98.04579 | 15714 ft | 342 kts | 105° |
| 2026-04-24 19:44 | 35.58511 | -98.01744 | 15443 ft | 339 kts | 105° |
| 2026-04-24 19:45 | 35.57984 | -97.98937 | 15161 ft | 335 kts | 106° |
| 2026-04-24 19:45 | 35.57279 | -97.96226 | 14876 ft | 331 kts | 114° |
| 2026-04-24 19:45 | 35.56428 | -97.93603 | 14576 ft | 330 kts | 115° |
| 2026-04-24 19:45 | 35.55568 | -97.91003 | 14295 ft | 327 kts | 114° |
| 2026-04-24 19:46 | 35.54742 | -97.88423 | 14112 ft | 322 kts | 113° |
| 2026-04-24 19:46 | 35.53949 | -97.85884 | 13991 ft | 315 kts | 113° |
| 2026-04-24 19:46 | 35.53177 | -97.83397 | 13817 ft | 309 kts | 113° |
| 2026-04-24 19:46 | 35.52416 | -97.80937 | 13562 ft | 307 kts | 113° |
| 2026-04-24 19:47 | 35.51668 | -97.78524 | 13266 ft | 306 kts | 112° |
| 2026-04-24 19:47 | 35.50915 | -97.76097 | 13056 ft | 302 kts | 113° |
| 2026-04-24 19:47 | 35.50143 | -97.73749 | 12911 ft | 289 kts | 121° |
| 2026-04-24 19:47 | 35.48868 | -97.71950 | 12724 ft | 276 kts | 150° |
| 2026-04-24 19:48 | 35.47159 | -97.71005 | 12509 ft | 266 kts | 169° |
| 2026-04-24 19:48 | 35.45345 | -97.70720 | 12204 ft | 262 kts | 181° |
| 2026-04-24 19:48 | 35.41722 | -97.70676 | 11684 ft | 258 kts | 181° |
| 2026-04-24 19:49 | 35.38203 | -97.70694 | 11309 ft | 249 kts | 182° |
| 2026-04-24 19:49 | 35.34769 | -97.70706 | 10726 ft | 242 kts | 180° |
| 2026-04-24 19:50 | 35.29702 | -97.70561 | 9520 ft | 244 kts | 174° |
| 2026-04-24 19:50 | 35.28001 | -97.70433 | 9000 ft | 246 kts | 174° |
| 2026-04-24 19:51 | 35.24612 | -97.70129 | 7896 ft | 242 kts | 176° |
| 2026-04-24 19:51 | 35.22938 | -97.70109 | 7368 ft | 238 kts | 178° |
| 2026-04-24 19:52 | 35.19673 | -97.70168 | 6285 ft | 232 kts | 179° |
| 2026-04-24 19:52 | 35.18075 | -97.70160 | 5748 ft | 228 kts | 170° |
| 2026-04-24 19:52 | 35.16625 | -97.69500 | 5172 ft | 221 kts | 139° |
| 2026-04-24 19:52 | 35.15779 | -97.68032 | 4664 ft | 209 kts | 104° |
| 2026-04-24 19:53 | 35.15628 | -97.66283 | 4131 ft | 207 kts | 88° |
| 2026-04-24 19:53 | 35.15689 | -97.64523 | 3601 ft | 207 kts | 85° |
| 2026-04-24 19:53 | 35.16094 | -97.61166 | 2971 ft | 188 kts | 57° |
| 2026-04-24 19:54 | 35.17091 | -97.60175 | 2983 ft | 190 kts | 27° |
| 2026-04-24 19:54 | 35.18378 | -97.59710 | 2986 ft | 194 kts | 15° |
| 2026-04-24 19:54 | 35.19696 | -97.59373 | 2985 ft | 193 kts | 14° |
| 2026-04-24 19:54 | 35.20978 | -97.59065 | 3007 ft | 185 kts | 14° |
| 2026-04-24 19:55 | 35.21828 | -97.58914 | 2992 ft | 187 kts | 8° |
| 2026-04-24 19:55 | 35.23539 | -97.58873 | 2984 ft | 178 kts | 3° |
| 2026-04-24 19:55 | 35.24790 | -97.58880 | 2982 ft | 182 kts | 2° |
| 2026-04-24 19:55 | 35.26065 | -97.58883 | 2986 ft | 187 kts | 2° |
| 2026-04-24 19:56 | 35.27346 | -97.58862 | 2965 ft | 181 kts | 6° |
| 2026-04-24 19:56 | 35.28572 | -97.58874 | 2969 ft | 178 kts | 2° |
| 2026-04-24 19:56 | 35.29812 | -97.58887 | 2811 ft | 181 kts | 2° |
| 2026-04-24 19:56 | 35.31053 | -97.58889 | 2580 ft | 175 kts | 5° |
| 2026-04-24 19:57 | 35.32224 | -97.58890 | 2352 ft | 162 kts | 5° |
| 2026-04-24 19:57 | 35.33301 | -97.58890 | 2170 ft | 152 kts | 4° |
| 2026-04-24 19:57 | 35.34353 | -97.58890 | 1997 ft | 149 kts | 3° |
| 2026-04-24 19:57 | 35.35369 | -97.58890 | 1824 ft | 145 kts | 1° |
| 2026-04-24 19:58 | 35.36383 | -97.58883 | 1636 ft | 144 kts | 359° |
| 2026-04-24 19:58 | 35.37366 | -97.58904 | 1469 ft | 139 kts | 1° |
| 2026-04-24 19:58 | 35.38318 | -97.58896 | 1319 ft | 132 kts | 1° |
| 2026-04-24 19:58 | 35.39168 | -97.58890 | 1299 ft | 99 kts | 0° |
| 2026-04-24 19:59 | 35.39529 | -97.58888 | 1296 ft | 21 kts | 1° |
| 2026-04-24 19:59 | 35.39660 | -97.58901 | 1296 ft | 11 kts | 338° |
| 2026-04-24 19:59 | 35.39715 | -97.58973 | 1297 ft | 8 kts | 286° |
| 2026-04-24 19:59 | 35.39719 | -97.59074 | 1300 ft | 13 kts | 263° |
| 2026-04-24 20:00 | 35.39709 | -97.59109 | 1300 ft | 0 kts | 241° |
| 2026-04-24 20:00 | 35.39647 | -97.59150 | 1301 ft | 18 kts | 186° |
| 2026-04-24 20:00 | 35.39581 | -97.59261 | 1302 ft | 20 kts | 268° |
| 2026-04-24 20:00 | 35.39578 | -97.59379 | 1302 ft | 4 kts | 264° |
| 2026-04-24 20:01 | 35.39575 | -97.59394 | 1302 ft | 0 kts | 257° |